Time;durP1;ratioP1;P1;durP2;ratioP2;P2;SDS_P1;SDS_P2;PMS_P1;PMS_P2;Temp;Humidity;BMP_temperature;BMP_pressure;BME280_temperature;BME280_humidity;BME280_pressure;Samples;Min_cycle;Max_cycle;Signal;HPM_P1;HPM_P2
2022/06/06 00:01:48;;;;;;;;;;;;;;;14.82;97.63;99391.94;7873376;30;20045;-74
2022/06/06 00:05:50;;;;;;;;;;;;;;;14.75;97.36;99386.91;7887285;29;20036;-74
2022/06/06 00:09:52;;;;;;;;;;;;;;;14.72;97.26;99380.00;7855480;30;19934;-74
2022/06/06 00:13:53;;;;;;;;;;;;;;;14.64;96.92;99397.56;7890108;30;20625;-74
2022/06/06 00:17:54;;;;;;;;;;;;;;;14.57;98.59;99392.50;7876366;30;19957;-73
2022/06/06 00:21:56;;;;;;;;;;;;;;;14.61;99.97;99387.19;7874932;30;19930;-74
2022/06/06 00:25:57;;;;;;;;;;;;;;;14.61;99.95;99384.56;7871225;30;20223;-74
2022/06/06 00:29:59;;;;;;;;;;;;;;;14.67;100.00;99378.34;7875912;30;19937;-74
2022/06/06 00:38:22;;;;;;;;;;;;;;;14.77;100.00;99366.81;7883004;30;20439;-74
2022/06/06 00:42:31;;;;;;;;;;;;;;;14.84;100.00;99370.13;7873863;30;19929;-74
2022/06/06 00:46:34;;;;;;;;;;;;;;;14.93;100.00;99369.94;7880554;30;19933;-74
2022/06/06 00:50:45;;;;;;;;;;;;;;;15.00;100.00;99375.00;7874620;30;19930;-74
2022/06/06 00:54:47;;;;;;;;;;;;;;;15.08;100.00;99367.84;7897387;30;19930;-74
2022/06/06 00:58:51;;;;;;;;;;;;;;;15.16;100.00;99356.34;7893917;30;20374;-74
2022/06/06 01:02:56;;;;;;;;;;;;;;;15.23;100.00;99358.75;7891875;29;19930;-74
2022/06/06 01:06:57;;;;;;;;;;;;;;;15.30;100.00;99362.13;7878985;30;19930;-74
2022/06/06 01:10:59;;;;;;;;;;;;;;;15.28;100.00;99359.53;7880305;30;19930;-74
2022/06/06 01:15:04;;;;;;;;;;;;;;;15.26;100.00;99356.09;7878942;30;19940;-74
2022/06/06 01:19:11;;;;;;;;;;;;;;;15.22;100.00;99354.44;7882567;30;19940;-74
2022/06/06 01:23:32;;;;;;;;;;;;;;;15.18;100.00;99351.94;7877138;30;19930;-74
2022/06/06 01:27:45;;;;;;;;;;;;;;;15.10;99.43;99354.75;7877366;30;20024;-74
2022/06/06 01:31:54;;;;;;;;;;;;;;;15.03;99.11;99361.84;7870917;30;20542;-75
2022/06/06 01:36:00;;;;;;;;;;;;;;;14.96;98.99;99362.03;7878222;30;20558;-74
2022/06/06 01:40:02;;;;;;;;;;;;;;;14.92;98.98;99356.03;7889322;30;19929;-74
2022/06/06 01:44:06;;;;;;;;;;;;;;;14.92;99.12;99357.78;7878215;30;20379;-74
2022/06/06 01:48:14;;;;;;;;;;;;;;;14.88;99.08;99367.41;7858554;30;19969;-74
2022/06/06 01:52:16;;;;;;;;;;;;;;;14.84;98.77;99354.47;7880415;30;19936;-75
2022/06/06 01:56:19;;;;;;;;;;;;;;;14.81;98.87;99358.00;7876438;30;19945;-74
2022/06/06 02:00:21;;;;;;;;;;;;;;;14.83;99.71;99350.97;7874539;30;19929;-74
2022/06/06 02:04:22;;;;;;;;;;;;;;;14.86;99.96;99345.69;7885993;30;19949;-74
2022/06/06 02:08:24;;;;;;;;;;;;;;;14.84;99.48;99346.63;7884962;30;20672;-74
2022/06/06 02:12:25;;;;;;;;;;;;;;;14.82;99.05;99344.91;7884217;30;20310;-74
2022/06/06 02:16:28;;;;;;;;;;;;;;;14.80;98.89;99346.69;7887840;30;19976;-75
2022/06/06 02:20:31;;;;;;;;;;;;;;;14.81;99.21;99339.69;7883772;30;19936;-74
2022/06/06 02:24:32;;;;;;;;;;;;;;;14.85;98.91;99345.72;7878765;30;19941;-75
2022/06/06 02:28:33;;;;;;;;;;;;;;;14.88;99.16;99345.63;7888957;30;19982;-74
2022/06/06 02:32:35;;;;;;;;;;;;;;;14.88;99.59;99336.03;7902504;30;19976;-75
2022/06/06 02:36:36;;;;;;;;;;;;;;;14.91;99.54;99348.22;7880370;30;19929;-74
2022/06/06 02:40:44;;;;;;;;;;;;;;;14.93;99.53;99336.81;7877470;30;19957;-75
2022/06/06 02:44:46;;;;;;;;;;;;;;;14.94;99.64;99325.47;7895150;29;19929;-74
2022/06/06 02:48:47;;;;;;;;;;;;;;;14.96;99.75;99323.66;7883456;30;19930;-75
2022/06/06 02:52:48;;;;;;;;;;;;;;;14.97;100.00;99312.31;7900674;30;19930;-75
2022/06/06 02:56:51;;;;;;;;;;;;;;;14.99;99.76;99317.50;7881331;30;19969;-74
2022/06/06 03:00:56;;;;;;;;;;;;;;;15.00;99.69;99312.25;7883229;30;19973;-75
2022/06/06 03:04:58;;;;;;;;;;;;;;;15.00;99.66;99314.00;7880196;30;19940;-75
2022/06/06 03:09:18;;;;;;;;;;;;;;;15.01;99.37;99313.09;7875973;30;19976;-75
2022/06/06 03:13:43;;;;;;;;;;;;;;;14.99;99.30;99314.88;7873425;30;19936;-75
2022/06/06 03:22:22;;;;;;;;;;;;;;;14.90;99.40;99315.97;7894823;30;19969;-74
2022/06/06 03:26:29;;;;;;;;;;;;;;;14.88;99.49;99315.13;7875864;30;20371;-75
2022/06/06 03:30:48;;;;;;;;;;;;;;;14.87;99.40;99316.03;7889173;29;20651;-75
2022/06/06 03:34:56;;;;;;;;;;;;;;;14.84;99.50;99321.34;7880714;30;20016;-75
2022/06/06 03:39:02;;;;;;;;;;;;;;;14.88;99.75;99309.91;7876222;30;20244;-76
2022/06/06 03:43:24;;;;;;;;;;;;;;;14.93;99.61;99307.19;7889844;30;20046;-76
2022/06/06 03:47:46;;;;;;;;;;;;;;;14.95;99.30;99301.03;7876979;30;19936;-76
2022/06/06 03:51:48;;;;;;;;;;;;;;;14.97;98.92;99314.94;7875592;30;20017;-76
2022/06/06 03:56:02;;;;;;;;;;;;;;;14.96;98.51;99305.38;7881237;30;19937;-76
2022/06/06 04:00:12;;;;;;;;;;;;;;;14.94;98.29;99304.56;7880263;30;20636;-76
2022/06/06 04:04:13;;;;;;;;;;;;;;;14.95;98.21;99305.41;7872198;30;20306;-76
2022/06/06 04:08:15;;;;;;;;;;;;;;;14.96;98.15;99309.75;7879148;30;19936;-75
2022/06/06 04:12:33;;;;;;;;;;;;;;;14.97;98.03;99316.69;7872236;30;19972;-76
2022/06/06 04:16:53;;;;;;;;;;;;;;;15.01;97.90;99313.97;7872748;30;19961;-76
2022/06/06 04:21:01;;;;;;;;;;;;;;;15.09;97.73;99317.25;7877020;30;20528;-76
2022/06/06 04:25:09;;;;;;;;;;;;;;;15.16;97.62;99317.09;7894062;30;19929;-76
2022/06/06 04:29:29;;;;;;;;;;;;;;;15.22;97.35;99317.81;7859552;30;19930;-76
2022/06/06 04:33:49;;;;;;;;;;;;;;;15.32;96.83;99327.16;7875869;30;19957;-75
2022/06/06 04:38:03;;;;;;;;;;;;;;;15.45;96.37;99325.13;7875352;30;19929;-76
2022/06/06 04:42:08;;;;;;;;;;;;;;;15.61;96.23;99329.06;7893027;29;20048;-75
2022/06/06 04:46:24;;;;;;;;;;;;;;;15.70;95.66;99335.84;7889715;30;19934;-75
2022/06/06 04:50:25;;;;;;;;;;;;;;;15.81;95.48;99335.56;7869214;30;19987;-76
2022/06/06 04:54:28;;;;;;;;;;;;;;;15.83;95.20;99337.22;7875715;30;19984;-76
2022/06/06 04:58:31;;;;;;;;;;;;;;;15.80;94.95;99342.56;7871225;30;19945;-73
2022/06/06 05:02:34;;;;;;;;;;;;;;;15.82;95.02;99339.91;7873711;30;19940;-75
2022/06/06 05:06:41;;;;;;;;;;;;;;;15.84;94.87;99332.84;7874958;30;19930;-75
2022/06/06 05:10:56;;;;;;;;;;;;;;;15.95;94.29;99336.03;7873175;30;19934;-75
2022/06/06 05:15:15;;;;;;;;;;;;;;;16.13;93.57;99348.63;7875601;30;19980;-75
2022/06/06 05:19:35;;;;;;;;;;;;;;;16.22;93.40;99366.72;7873006;30;19940;-76
2022/06/06 05:24:03;;;;;;;;;;;;;;;16.24;92.60;99370.16;7877349;30;19972;-75
2022/06/06 05:28:20;;;;;;;;;;;;;;;16.22;91.74;99374.56;7873300;30;20017;-75
2022/06/06 05:32:35;;;;;;;;;;;;;;;16.19;91.73;99379.91;7877852;30;19929;-75
2022/06/06 05:36:45;;;;;;;;;;;;;;;16.25;92.13;99389.34;7881250;30;19979;-76
2022/06/06 05:40:49;;;;;;;;;;;;;;;16.33;92.15;99382.97;7878933;30;19929;-76
2022/06/06 05:45:14;;;;;;;;;;;;;;;16.44;91.09;99394.94;7879400;30;19930;-76
2022/06/06 05:49:35;;;;;;;;;;;;;;;16.74;91.11;99388.84;7877349;30;20251;-76
2022/06/06 05:53:39;;;;;;;;;;;;;;;17.32;88.90;99384.44;7880782;30;20357;-76
2022/06/06 05:57:52;;;;;;;;;;;;;;;17.68;86.69;99392.06;7878302;30;19985;-76
2022/06/06 06:01:56;;;;;;;;;;;;;;;17.51;84.48;99393.44;7877206;30;19977;-76
2022/06/06 06:05:58;;;;;;;;;;;;;;;17.33;84.95;99390.53;7877450;30;19930;-76
2022/06/06 06:10:02;;;;;;;;;;;;;;;17.24;86.10;99385.59;7893417;30;19937;-75
2022/06/06 06:14:25;;;;;;;;;;;;;;;17.25;85.96;99387.31;7875701;30;19934;-75
2022/06/06 06:18:30;;;;;;;;;;;;;;;17.83;83.64;99385.44;7893290;29;20017;-76
2022/06/06 06:22:36;;;;;;;;;;;;;;;18.25;82.25;99393.59;7892418;30;19930;-76
2022/06/06 06:26:39;;;;;;;;;;;;;;;18.14;82.14;99398.38;7880783;30;19972;-76
2022/06/06 06:30:53;;;;;;;;;;;;;;;18.09;81.39;99401.16;7878274;30;19984;-76
2022/06/06 06:35:00;;;;;;;;;;;;;;;18.04;81.65;99411.84;7874483;30;20526;-76
2022/06/06 06:39:13;;;;;;;;;;;;;;;18.19;80.50;99423.59;7876896;30;19937;-76
2022/06/06 06:43:31;;;;;;;;;;;;;;;18.09;80.07;99425.66;7878670;30;19926;-76
2022/06/06 06:47:34;;;;;;;;;;;;;;;18.57;79.99;99429.25;7881171;30;19937;-74
2022/06/06 06:51:43;;;;;;;;;;;;;;;18.81;76.92;99435.41;7873608;30;20220;-75
2022/06/06 06:56:03;;;;;;;;;;;;;;;18.82;77.42;99430.09;7876659;30;19930;-74
2022/06/06 07:00:17;;;;;;;;;;;;;;;19.04;77.74;99429.31;7877762;30;19929;-74
2022/06/06 07:08:58;;;;;;;;;;;;;;;19.88;72.24;99434.69;7878306;30;19930;-74
2022/06/06 07:13:02;;;;;;;;;;;;;;;19.68;72.01;99429.41;7872035;30;19991;-75
2022/06/06 07:17:05;;;;;;;;;;;;;;;19.51;73.03;99428.28;7878271;30;20016;-74
2022/06/06 07:21:07;;;;;;;;;;;;;;;19.40;72.82;99427.88;7874998;30;20490;-74
2022/06/06 07:25:10;;;;;;;;;;;;;;;19.45;71.87;99433.78;7873266;30;19988;-74
2022/06/06 07:29:13;;;;;;;;;;;;;;;19.56;72.19;99423.69;7873583;30;19944;-74
2022/06/06 07:33:34;;;;;;;;;;;;;;;19.86;72.37;99431.28;7874777;30;19929;-75
2022/06/06 07:37:36;;;;;;;;;;;;;;;20.16;70.87;99424.72;7874866;30;19940;-74
2022/06/06 07:41:37;;;;;;;;;;;;;;;20.17;69.31;99429.06;7886274;29;19980;-73
2022/06/06 07:45:38;;;;;;;;;;;;;;;20.10;69.59;99419.69;7874672;30;19930;-73
2022/06/06 07:49:50;;;;;;;;;;;;;;;20.54;68.13;99418.72;7870986;30;19969;-73
2022/06/06 07:54:04;;;;;;;;;;;;;;;20.84;67.07;99424.41;7873923;30;19930;-72
2022/06/06 07:58:08;;;;;;;;;;;;;;;21.17;65.14;99419.31;7872579;30;20025;-73
2022/06/06 08:02:22;;;;;;;;;;;;;;;21.13;64.48;99416.81;7873724;30;19929;-73
2022/06/06 08:06:33;;;;;;;;;;;;;;;20.68;64.33;99413.69;7873632;30;19972;-73
2022/06/06 08:10:37;;;;;;;;;;;;;;;21.30;65.50;99408.13;7875230;30;19984;-73
2022/06/06 08:15:14;;;;;;;;;;;;;;;21.95;61.62;99408.47;7880335;30;19936;-73
2022/06/06 08:19:22;;;;;;;;;;;;;;;22.33;60.97;99395.09;7870323;30;19929;-73
2022/06/06 08:23:24;;;;;;;;;;;;;;;22.06;61.07;99395.56;7891195;29;19934;-73
2022/06/06 08:27:27;;;;;;;;;;;;;;;21.88;62.51;99402.63;7875633;30;20363;-73
2022/06/06 08:31:28;;;;;;;;;;;;;;;22.08;61.51;99395.50;7878022;30;20617;-73
2022/06/06 08:35:35;;;;;;;;;;;;;;;22.06;58.87;99389.44;7873614;30;19960;-75
2022/06/06 08:39:55;;;;;;;;;;;;;;;22.25;57.60;99390.19;7879218;30;20427;-75
2022/06/06 08:44:01;;;;;;;;;;;;;;;22.05;57.52;99390.38;7870889;30;19965;-75
2022/06/06 08:48:03;;;;;;;;;;;;;;;21.87;59.07;99394.78;7878462;30;20013;-75
2022/06/06 08:52:10;;;;;;;;;;;;;;;22.06;57.60;99400.00;7871694;30;19934;-75
2022/06/06 08:56:21;;;;;;;;;;;;;;;22.29;53.62;99389.97;7866061;30;19934;-75
2022/06/06 09:00:43;;;;;;;;;;;;;;;22.30;54.81;99396.97;7872735;30;19937;-74
2022/06/06 09:05:01;;;;;;;;;;;;;;;22.30;55.40;99388.19;7877333;30;19929;-75
2022/06/06 09:09:16;;;;;;;;;;;;;;;22.54;52.65;99386.03;7891407;30;19929;-74
2022/06/06 09:13:37;;;;;;;;;;;;;;;22.31;54.55;99395.19;7881909;30;19929;-75
2022/06/06 09:17:58;;;;;;;;;;;;;;;21.96;55.38;99383.75;7892056;29;19940;-75
2022/06/06 09:21:59;;;;;;;;;;;;;;;21.66;55.94;99383.50;7894408;30;19930;-75
2022/06/06 09:26:20;;;;;;;;;;;;;;;21.60;56.44;99382.03;7878654;30;19941;-74
2022/06/06 09:30:42;;;;;;;;;;;;;;;21.28;54.30;99382.72;7884747;30;19929;-74
2022/06/06 09:35:02;;;;;;;;;;;;;;;21.17;55.05;99382.34;7880897;30;19960;-73
2022/06/06 09:39:09;;;;;;;;;;;;;;;21.00;54.43;99384.00;7874116;30;19969;-74
2022/06/06 09:43:15;;;;;;;;;;;;;;;21.02;57.54;99381.31;7879069;30;19965;-74
2022/06/06 09:47:29;;;;;;;;;;;;;;;20.97;57.01;99381.50;7876196;30;19973;-74
2022/06/06 09:51:41;;;;;;;;;;;;;;;20.91;57.17;99388.88;7876189;30;19956;-74
2022/06/06 10:00:03;;;;;;;;;;;;;;;21.10;54.88;99390.56;7875749;30;19930;-74
2022/06/06 10:04:10;;;;;;;;;;;;;;;21.70;53.93;99388.53;7874140;30;19940;-74
2022/06/06 10:08:32;;;;;;;;;;;;;;;22.09;51.08;99373.44;7873378;30;19933;-73
2022/06/06 10:12:54;;;;;;;;;;;;;;;22.22;50.45;99377.13;7881984;30;20025;-73
2022/06/06 10:17:04;;;;;;;;;;;;;;;22.54;50.67;99380.72;7872170;30;19929;-74
2022/06/06 10:21:24;;;;;;;;;;;;;;;22.42;51.64;99373.44;7872657;30;19937;-74
2022/06/06 10:25:34;;;;;;;;;;;;;;;21.83;52.13;99370.28;7874942;30;19981;-74
2022/06/06 10:34:26;;;;;;;;;;;;;;;21.11;55.85;99371.16;7873199;30;20491;-73
2022/06/06 10:38:37;;;;;;;;;;;;;;;20.85;55.55;99370.69;7891741;30;19929;-73
2022/06/06 10:42:58;;;;;;;;;;;;;;;20.80;55.21;99373.53;7875589;30;19969;-74
2022/06/06 10:47:12;;;;;;;;;;;;;;;21.31;55.01;99372.88;7878006;30;19941;-74
2022/06/06 10:51:41;;;;;;;;;;;;;;;22.15;53.33;99367.81;7873355;30;20318;-74
2022/06/06 10:55:58;;;;;;;;;;;;;;;22.90;50.90;99359.38;7876931;30;19973;-73
2022/06/06 11:00:00;;;;;;;;;;;;;;;23.44;49.49;99357.19;7871932;30;19930;-73
2022/06/06 11:04:20;;;;;;;;;;;;;;;23.55;48.90;99354.78;7871863;30;19930;-73
2022/06/06 11:08:28;;;;;;;;;;;;;;;23.57;45.24;99358.22;7885393;30;20539;-73
2022/06/06 11:12:40;;;;;;;;;;;;;;;23.32;47.07;99344.63;7871067;30;19934;-73
2022/06/06 11:16:57;;;;;;;;;;;;;;;23.86;47.86;99339.75;7870179;30;19929;-73
2022/06/06 11:21:11;;;;;;;;;;;;;;;23.82;45.88;99344.38;7885657;30;19930;-73
2022/06/06 11:25:20;;;;;;;;;;;;;;;23.44;44.52;99350.09;7865118;30;20016;-73
2022/06/06 11:29:27;;;;;;;;;;;;;;;23.52;46.62;99352.31;7875414;30;20352;-74
2022/06/06 11:33:44;;;;;;;;;;;;;;;23.18;44.63;99341.00;7868030;30;19937;-73
2022/06/06 11:38:11;;;;;;;;;;;;;;;23.07;45.80;99338.09;7876865;30;19936;-74
2022/06/06 11:42:12;;;;;;;;;;;;;;;23.42;44.89;99332.59;7872260;30;20592;-73
2022/06/06 11:46:26;;;;;;;;;;;;;;;23.80;44.46;99330.34;7889207;29;19925;-74
2022/06/06 11:50:42;;;;;;;;;;;;;;;24.00;41.80;99332.66;7895561;29;20003;-74
2022/06/06 11:55:10;;;;;;;;;;;;;;;24.06;42.60;99326.16;7867697;30;19956;-74
2022/06/06 11:59:27;;;;;;;;;;;;;;;24.38;40.77;99325.03;7864490;30;20327;-74
2022/06/06 12:03:50;;;;;;;;;;;;;;;24.41;40.72;99327.50;7867470;30;19929;-73
2022/06/06 12:08:06;;;;;;;;;;;;;;;24.34;40.34;99326.19;7874132;30;20350;-73
2022/06/06 12:12:26;;;;;;;;;;;;;;;24.28;38.30;99312.41;7875814;30;20025;-73
2022/06/06 12:16:29;;;;;;;;;;;;;;;24.49;38.94;99311.09;7897103;29;19957;-74
2022/06/06 12:20:30;;;;;;;;;;;;;;;24.59;37.76;99306.91;7874078;30;19932;-74
2022/06/06 12:25:01;;;;;;;;;;;;;;;24.80;38.80;99301.22;7888196;29;19937;-74
2022/06/06 12:29:03;;;;;;;;;;;;;;;24.69;37.50;99307.19;7881848;30;19968;-74
2022/06/06 12:33:09;;;;;;;;;;;;;;;24.65;36.49;99297.72;7875108;30;20538;-75
2022/06/06 12:37:13;;;;;;;;;;;;;;;24.23;38.73;99296.75;7872394;30;19969;-76
2022/06/06 12:41:18;;;;;;;;;;;;;;;24.07;40.44;99288.06;7873235;30;20025;-75
2022/06/06 12:45:34;;;;;;;;;;;;;;;23.74;40.98;99293.63;7882790;30;20036;-73
2022/06/06 12:49:55;;;;;;;;;;;;;;;23.53;41.93;99287.75;7879512;30;19940;-76
2022/06/06 12:54:03;;;;;;;;;;;;;;;23.21;39.40;99274.59;7878110;30;19929;-75
2022/06/06 12:58:13;;;;;;;;;;;;;;;23.80;42.10;99280.81;7878085;30;19930;-74
2022/06/06 13:02:18;;;;;;;;;;;;;;;23.76;40.28;99278.47;7879622;30;19933;-74
2022/06/06 13:06:27;;;;;;;;;;;;;;;23.92;42.17;99289.84;7882607;30;20346;-74
2022/06/06 13:10:41;;;;;;;;;;;;;;;23.76;41.80;99284.63;7881086;30;19930;-74
2022/06/06 13:14:49;;;;;;;;;;;;;;;23.90;42.19;99283.78;7896009;30;19957;-74
2022/06/06 13:18:55;;;;;;;;;;;;;;;23.73;42.95;99292.75;7875490;30;20077;-73
2022/06/06 13:23:04;;;;;;;;;;;;;;;23.96;43.30;99293.16;7896489;29;19926;-73
2022/06/06 13:27:35;;;;;;;;;;;;;;;24.02;42.23;99288.31;7875915;30;20281;-74
2022/06/06 13:31:53;;;;;;;;;;;;;;;24.13;41.62;99295.63;7880801;30;19961;-74
2022/06/06 13:36:04;;;;;;;;;;;;;;;23.98;42.18;99307.19;7876913;30;19944;-74
2022/06/06 13:40:21;;;;;;;;;;;;;;;23.78;42.38;99305.72;7891220;30;20708;-74
2022/06/06 13:44:22;;;;;;;;;;;;;;;23.98;42.50;99289.47;7874928;30;19940;-74
2022/06/06 13:48:42;;;;;;;;;;;;;;;24.17;41.98;99296.28;7896623;29;19929;-74
2022/06/06 13:53:04;;;;;;;;;;;;;;;24.68;40.75;99294.88;7877728;30;19937;-73
2022/06/06 13:57:09;;;;;;;;;;;;;;;24.54;36.40;99286.91;7892559;29;20068;-73
2022/06/06 14:01:13;;;;;;;;;;;;;;;24.08;39.35;99276.50;7877958;30;19933;-74
2022/06/06 14:05:41;;;;;;;;;;;;;;;24.09;39.98;99283.53;7880758;30;19933;-74
2022/06/06 14:09:43;;;;;;;;;;;;;;;24.46;41.45;99290.06;7878425;29;20017;-74
2022/06/06 14:13:45;;;;;;;;;;;;;;;24.54;41.52;99287.78;7892028;29;19930;-74
2022/06/06 14:17:49;;;;;;;;;;;;;;;24.24;40.93;99295.84;7861875;30;19941;-73
2022/06/06 14:21:51;;;;;;;;;;;;;;;23.92;41.84;99299.59;7872487;30;19937;-74
2022/06/06 14:26:04;;;;;;;;;;;;;;;23.78;41.48;99298.63;7880057;30;20025;-74
2022/06/06 14:30:30;;;;;;;;;;;;;;;24.04;41.24;99299.69;7877039;30;19972;-74
2022/06/06 14:34:35;;;;;;;;;;;;;;;23.94;39.84;99303.88;7874844;30;19930;-74
2022/06/06 14:38:38;;;;;;;;;;;;;;;23.59;41.58;99299.81;7878147;30;19965;-74
2022/06/06 14:42:44;;;;;;;;;;;;;;;23.54;42.73;99286.81;7876636;30;20299;-74
2022/06/06 14:46:50;;;;;;;;;;;;;;;23.74;41.69;99286.50;7877175;30;20477;-74
2022/06/06 14:50:54;;;;;;;;;;;;;;;24.02;41.35;99296.28;7875910;30;20013;-74
2022/06/06 14:54:57;;;;;;;;;;;;;;;23.96;41.01;99287.84;7891014;29;20664;-75
2022/06/06 14:59:01;;;;;;;;;;;;;;;24.14;41.78;99285.88;7878682;30;19930;-73
2022/06/06 15:03:04;;;;;;;;;;;;;;;24.55;40.46;99288.63;7874087;30;20595;-73
2022/06/06 15:07:05;;;;;;;;;;;;;;;24.42;39.12;99288.56;7876462;30;19930;-73
2022/06/06 15:11:12;;;;;;;;;;;;;;;24.57;38.83;99276.09;7888039;30;20000;-73
2022/06/06 15:15:16;;;;;;;;;;;;;;;24.51;39.24;99271.19;7878566;30;19930;-73
2022/06/06 15:19:21;;;;;;;;;;;;;;;24.77;40.16;99283.63;7890972;29;19965;-74
2022/06/06 15:23:42;;;;;;;;;;;;;;;24.92;38.08;99284.47;7876364;30;19929;-73
2022/06/06 15:28:04;;;;;;;;;;;;;;;24.81;38.43;99279.84;7873764;30;20710;-73
2022/06/06 15:32:14;;;;;;;;;;;;;;;24.92;39.19;99279.16;7886502;29;19969;-74
2022/06/06 15:36:23;;;;;;;;;;;;;;;24.75;37.05;99279.38;7870999;30;19930;-73
2022/06/06 15:40:31;;;;;;;;;;;;;;;24.81;37.28;99268.38;7868022;30;19977;-74
2022/06/06 15:44:47;;;;;;;;;;;;;;;24.83;37.84;99277.94;7880005;30;19930;-74
2022/06/06 15:49:21;;;;;;;;;;;;;;;24.85;36.02;99261.91;7868309;30;19941;-74
2022/06/06 15:53:41;;;;;;;;;;;;;;;25.02;36.09;99266.16;7884662;29;20642;-74
2022/06/06 15:57:49;;;;;;;;;;;;;;;25.03;36.26;99258.09;7850260;30;19973;-73
2022/06/06 16:01:58;;;;;;;;;;;;;;;25.21;36.53;99256.88;7863676;30;19940;-73
2022/06/06 16:06:01;;;;;;;;;;;;;;;25.20;35.66;99251.66;7877377;30;19936;-74
2022/06/06 16:10:12;;;;;;;;;;;;;;;25.36;35.62;99243.50;7887509;29;20598;-74
2022/06/06 16:14:26;;;;;;;;;;;;;;;25.45;36.00;99246.38;7864295;30;19930;-73
2022/06/06 16:18:35;;;;;;;;;;;;;;;25.09;36.05;99246.19;7865867;30;19980;-73
2022/06/06 16:22:44;;;;;;;;;;;;;;;24.54;36.03;99239.97;7869209;30;19944;-73
2022/06/06 16:26:54;;;;;;;;;;;;;;;24.01;37.38;99244.19;7867585;30;19988;-74
2022/06/06 16:30:58;;;;;;;;;;;;;;;23.69;38.60;99245.28;7869199;30;19990;-74
2022/06/06 16:35:02;;;;;;;;;;;;;;;23.38;40.32;99247.09;7870725;30;20296;-74
2022/06/06 16:39:23;;;;;;;;;;;;;;;23.00;40.31;99235.25;7865526;30;20033;-74
2022/06/06 16:48:03;;;;;;;;;;;;;;;22.30;41.19;99242.69;7861983;30;20628;-73
2022/06/06 16:52:08;;;;;;;;;;;;;;;22.12;42.45;99247.19;7859538;30;20309;-73
2022/06/06 16:56:29;;;;;;;;;;;;;;;21.92;43.36;99248.22;7864059;30;20025;-74
2022/06/06 17:00:42;;;;;;;;;;;;;;;21.83;43.02;99240.75;7864987;30;20057;-73
2022/06/06 17:04:46;;;;;;;;;;;;;;;21.90;43.08;99243.91;7869134;30;20276;-74
2022/06/06 17:09:06;;;;;;;;;;;;;;;21.95;42.62;99245.41;7866223;30;20048;-73
2022/06/06 17:13:26;;;;;;;;;;;;;;;21.80;42.27;99240.91;7872112;30;19944;-74
2022/06/06 17:17:27;;;;;;;;;;;;;;;21.71;42.08;99247.53;7869780;30;19945;-74
2022/06/06 17:21:28;;;;;;;;;;;;;;;21.56;41.97;99245.72;7870493;30;19941;-74
2022/06/06 17:25:41;;;;;;;;;;;;;;;21.39;42.19;99236.00;7866362;30;19935;-74
2022/06/06 17:29:50;;;;;;;;;;;;;;;21.19;41.74;99241.41;7872597;30;19929;-73
2022/06/06 17:33:54;;;;;;;;;;;;;;;21.09;43.76;99242.78;7865881;30;20697;-73
2022/06/06 17:38:02;;;;;;;;;;;;;;;21.01;44.45;99237.03;7873878;30;19965;-73
2022/06/06 17:42:03;;;;;;;;;;;;;;;20.88;44.91;99244.69;7872919;30;19930;-74
2022/06/06 17:46:11;;;;;;;;;;;;;;;20.67;44.40;99238.69;7873280;30;19929;-74
2022/06/06 17:50:32;;;;;;;;;;;;;;;20.60;44.74;99247.78;7888042;30;19929;-75
2022/06/06 17:54:42;;;;;;;;;;;;;;;20.56;44.75;99253.31;7874306;30;19965;-73
2022/06/06 17:58:50;;;;;;;;;;;;;;;20.49;44.14;99252.75;7874667;30;19990;-73
2022/06/06 18:03:03;;;;;;;;;;;;;;;20.45;44.46;99251.16;7877333;30;19965;-73
2022/06/06 18:07:23;;;;;;;;;;;;;;;20.43;45.11;99247.75;7870216;30;19965;-73
2022/06/06 18:11:32;;;;;;;;;;;;;;;20.31;48.53;99245.66;7874697;30;20641;-73
2022/06/06 18:15:40;;;;;;;;;;;;;;;20.22;47.50;99246.91;7886177;30;19936;-73
2022/06/06 18:19:43;;;;;;;;;;;;;;;20.11;47.98;99252.72;7867893;30;20437;-73
2022/06/06 18:23:46;;;;;;;;;;;;;;;20.02;47.79;99257.53;7867406;30;19930;-73
2022/06/06 18:27:47;;;;;;;;;;;;;;;19.93;49.01;99256.16;7866575;30;19939;-73
2022/06/06 18:31:52;;;;;;;;;;;;;;;19.90;47.95;99265.03;7882396;30;19957;-73
2022/06/06 18:35:56;;;;;;;;;;;;;;;19.80;48.14;99253.22;7870785;30;19929;-73
2022/06/06 18:40:00;;;;;;;;;;;;;;;19.71;48.32;99260.66;7873113;30;19940;-74
2022/06/06 18:44:14;;;;;;;;;;;;;;;19.64;49.71;99259.22;7875579;30;20328;-73
2022/06/06 18:48:17;;;;;;;;;;;;;;;19.46;50.34;99256.44;7877901;30;20343;-73
2022/06/06 18:52:26;;;;;;;;;;;;;;;19.37;51.52;99264.69;7872375;30;20000;-73
2022/06/06 18:56:27;;;;;;;;;;;;;;;19.20;55.63;99254.03;7867926;30;20029;-72
2022/06/06 19:00:30;;;;;;;;;;;;;;;19.11;56.03;99257.91;7883535;30;19936;-73
2022/06/06 19:04:34;;;;;;;;;;;;;;;18.99;57.68;99264.50;7874050;30;19930;-73
2022/06/06 19:08:37;;;;;;;;;;;;;;;18.81;60.18;99262.63;7869238;30;20686;-72
2022/06/06 19:12:52;;;;;;;;;;;;;;;18.67;62.67;99267.56;7856701;30;20336;-73
2022/06/06 19:16:56;;;;;;;;;;;;;;;18.49;60.41;99260.38;7871858;30;20255;-73
2022/06/06 19:21:01;;;;;;;;;;;;;;;18.33;61.45;99266.25;7872630;30;19933;-73
2022/06/06 19:25:03;;;;;;;;;;;;;;;18.23;62.88;99264.84;7872642;30;19930;-74
2022/06/06 19:29:06;;;;;;;;;;;;;;;18.09;64.04;99272.38;7871143;30;20404;-74
2022/06/06 19:33:19;;;;;;;;;;;;;;;17.93;63.18;99279.97;7870710;30;20036;-74
2022/06/06 19:37:22;;;;;;;;;;;;;;;17.81;64.94;99277.81;7871281;30;19929;-73
2022/06/06 19:41:27;;;;;;;;;;;;;;;17.73;65.65;99278.06;7868883;30;20822;-73
2022/06/06 19:45:39;;;;;;;;;;;;;;;17.69;66.22;99286.09;7869389;30;20024;-73
2022/06/06 19:49:42;;;;;;;;;;;;;;;17.58;65.89;99280.31;7870687;30;20044;-73
2022/06/06 19:53:44;;;;;;;;;;;;;;;17.47;65.22;99280.72;7886030;29;19950;-73
2022/06/06 19:57:46;;;;;;;;;;;;;;;17.38;66.35;99283.63;7869705;30;19929;-73
2022/06/06 20:01:49;;;;;;;;;;;;;;;17.30;66.26;99277.78;7869426;30;20483;-73
2022/06/06 20:05:55;;;;;;;;;;;;;;;17.24;67.06;99281.50;7868938;30;19936;-72
2022/06/06 20:10:25;;;;;;;;;;;;;;;17.18;66.18;99279.06;7868948;30;19940;-72
2022/06/06 20:14:28;;;;;;;;;;;;;;;17.10;66.27;99281.09;7872978;29;20389;-72
2022/06/06 20:18:31;;;;;;;;;;;;;;;17.03;67.10;99290.03;7870980;30;19930;-72
2022/06/06 20:22:32;;;;;;;;;;;;;;;16.94;67.79;99287.72;7870408;30;20510;-72
2022/06/06 20:26:36;;;;;;;;;;;;;;;16.85;67.97;99281.00;7870382;30;19930;-71
2022/06/06 20:35:09;;;;;;;;;;;;;;;16.72;68.54;99275.28;7873254;30;19929;-72
2022/06/06 20:39:11;;;;;;;;;;;;;;;16.65;68.62;99275.47;7868092;30;20032;-72
2022/06/06 20:43:19;;;;;;;;;;;;;;;16.59;68.30;99277.41;7872057;30;19930;-73
2022/06/06 20:47:29;;;;;;;;;;;;;;;16.53;69.50;99274.97;7879232;30;19936;-72
2022/06/06 20:51:36;;;;;;;;;;;;;;;16.47;69.38;99282.16;7865862;30;20020;-72
2022/06/06 20:55:54;;;;;;;;;;;;;;;16.37;70.05;99281.56;7868757;30;19937;-72
2022/06/06 20:59:57;;;;;;;;;;;;;;;16.27;70.44;99278.34;7865110;30;19936;-72
2022/06/06 21:04:01;;;;;;;;;;;;;;;16.22;71.21;99284.66;7861222;30;19973;-72
2022/06/06 21:08:03;;;;;;;;;;;;;;;16.14;71.59;99290.09;7885613;30;20230;-72
2022/06/06 21:12:05;;;;;;;;;;;;;;;16.09;71.24;99284.13;7892267;29;20032;-72
2022/06/06 21:16:08;;;;;;;;;;;;;;;16.04;71.39;99283.41;7891078;29;19930;-72
2022/06/06 21:20:11;;;;;;;;;;;;;;;16.01;71.07;99278.25;7877833;30;19930;-72
2022/06/06 21:24:16;;;;;;;;;;;;;;;15.97;70.48;99284.47;7894657;30;19929;-72
2022/06/06 21:28:17;;;;;;;;;;;;;;;15.91;70.65;99280.25;7873011;30;20221;-72
2022/06/06 21:32:20;;;;;;;;;;;;;;;15.82;72.02;99272.69;7869318;30;19936;-72
2022/06/06 21:36:22;;;;;;;;;;;;;;;15.74;70.56;99269.41;7874662;30;19930;-72
2022/06/06 21:40:24;;;;;;;;;;;;;;;15.68;71.11;99275.66;7884941;30;19992;-72
2022/06/06 21:44:26;;;;;;;;;;;;;;;15.61;70.92;99275.84;7875722;30;20410;-72
2022/06/06 21:48:27;;;;;;;;;;;;;;;15.54;70.89;99274.28;7874694;30;20344;-72
2022/06/06 21:52:30;;;;;;;;;;;;;;;15.45;73.18;99277.16;7876455;30;19988;-72
2022/06/06 21:56:33;;;;;;;;;;;;;;;15.37;73.39;99266.88;7874629;30;20341;-72
2022/06/06 22:00:38;;;;;;;;;;;;;;;15.38;73.62;99273.81;7877059;30;19929;-72
2022/06/06 22:04:39;;;;;;;;;;;;;;;15.32;73.10;99276.59;7877204;30;20344;-72